sensor_id;sensor_type;location;lat;lon;timestamp;temperature;humidity
4187;DHT22;2107;52.306;10.484;2023-07-31T00:00:51;14.90;99.90
4187;DHT22;2107;52.306;10.484;2023-07-31T00:03:18;14.90;99.90
4187;DHT22;2107;52.306;10.484;2023-07-31T00:05:44;14.90;99.90
4187;DHT22;2107;52.306;10.484;2023-07-31T00:08:13;14.90;99.90
4187;DHT22;2107;52.306;10.484;2023-07-31T00:10:39;14.90;99.90
4187;DHT22;2107;52.306;10.484;2023-07-31T00:13:06;14.90;99.90
4187;DHT22;2107;52.306;10.484;2023-07-31T00:15:33;14.90;99.90
4187;DHT22;2107;52.306;10.484;2023-07-31T00:18:00;14.90;99.90
4187;DHT22;2107;52.306;10.484;2023-07-31T00:20:27;14.90;99.90
4187;DHT22;2107;52.306;10.484;2023-07-31T00:22:54;14.90;99.90
4187;DHT22;2107;52.306;10.484;2023-07-31T00:25:22;14.90;99.90
4187;DHT22;2107;52.306;10.484;2023-07-31T00:27:49;15.00;99.90
4187;DHT22;2107;52.306;10.484;2023-07-31T00:30:16;15.00;99.90
4187;DHT22;2107;52.306;10.484;2023-07-31T00:32:43;14.90;99.90
4187;DHT22;2107;52.306;10.484;2023-07-31T00:35:10;15.00;99.90
4187;DHT22;2107;52.306;10.484;2023-07-31T00:37:37;15.00;99.90
4187;DHT22;2107;52.306;10.484;2023-07-31T00:40:04;15.10;99.90
4187;DHT22;2107;52.306;10.484;2023-07-31T00:42:33;15.10;99.90
4187;DHT22;2107;52.306;10.484;2023-07-31T00:44:59;15.10;99.90
4187;DHT22;2107;52.306;10.484;2023-07-31T00:47:26;15.10;99.90
4187;DHT22;2107;52.306;10.484;2023-07-31T00:49:53;15.10;99.90
4187;DHT22;2107;52.306;10.484;2023-07-31T00:52:21;15.00;99.90
4187;DHT22;2107;52.306;10.484;2023-07-31T00:54:49;15.10;99.90
4187;DHT22;2107;52.306;10.484;2023-07-31T00:57:16;15.10;99.90
4187;DHT22;2107;52.306;10.484;2023-07-31T00:59:44;15.00;99.90
4187;DHT22;2107;52.306;10.484;2023-07-31T01:02:12;14.90;99.90
4187;DHT22;2107;52.306;10.484;2023-07-31T01:04:39;14.80;99.90
4187;DHT22;2107;52.306;10.484;2023-07-31T01:07:11;14.90;99.90
4187;DHT22;2107;52.306;10.484;2023-07-31T01:09:44;14.80;99.90
4187;DHT22;2107;52.306;10.484;2023-07-31T01:12:15;14.80;99.90
4187;DHT22;2107;52.306;10.484;2023-07-31T01:14:52;14.90;99.90
4187;DHT22;2107;52.306;10.484;2023-07-31T01:17:28;14.90;99.90
4187;DHT22;2107;52.306;10.484;2023-07-31T01:19:56;14.90;99.90
4187;DHT22;2107;52.306;10.484;2023-07-31T01:22:38;14.90;99.90
4187;DHT22;2107;52.306;10.484;2023-07-31T01:25:16;14.80;99.90
4187;DHT22;2107;52.306;10.484;2023-07-31T01:27:53;14.90;99.90
4187;DHT22;2107;52.306;10.484;2023-07-31T01:30:27;14.80;99.90
4187;DHT22;2107;52.306;10.484;2023-07-31T01:32:56;14.80;99.90
4187;DHT22;2107;52.306;10.484;2023-07-31T01:35:24;14.80;99.90
4187;DHT22;2107;52.306;10.484;2023-07-31T01:37:52;14.80;99.90
4187;DHT22;2107;52.306;10.484;2023-07-31T01:40:19;14.70;99.90
4187;DHT22;2107;52.306;10.484;2023-07-31T01:42:47;14.70;99.90
4187;DHT22;2107;52.306;10.484;2023-07-31T01:45:14;14.80;99.90
4187;DHT22;2107;52.306;10.484;2023-07-31T01:47:41;14.80;99.90
4187;DHT22;2107;52.306;10.484;2023-07-31T01:50:09;14.80;99.90
4187;DHT22;2107;52.306;10.484;2023-07-31T01:52:36;14.70;99.90
4187;DHT22;2107;52.306;10.484;2023-07-31T01:55:03;14.80;99.90
4187;DHT22;2107;52.306;10.484;2023-07-31T01:57:30;14.80;99.90
4187;DHT22;2107;52.306;10.484;2023-07-31T01:59:58;14.80;99.90
4187;DHT22;2107;52.306;10.484;2023-07-31T02:02:25;14.70;99.90
4187;DHT22;2107;52.306;10.484;2023-07-31T02:04:52;14.70;99.90
4187;DHT22;2107;52.306;10.484;2023-07-31T02:07:19;14.70;99.90
4187;DHT22;2107;52.306;10.484;2023-07-31T02:09:46;14.70;99.90
4187;DHT22;2107;52.306;10.484;2023-07-31T02:12:13;14.70;99.90
4187;DHT22;2107;52.306;10.484;2023-07-31T02:14:40;14.70;99.90
4187;DHT22;2107;52.306;10.484;2023-07-31T02:17:08;14.70;99.90
4187;DHT22;2107;52.306;10.484;2023-07-31T02:19:35;14.70;99.90
4187;DHT22;2107;52.306;10.484;2023-07-31T02:22:02;14.80;99.90
4187;DHT22;2107;52.306;10.484;2023-07-31T02:24:29;14.70;99.90
4187;DHT22;2107;52.306;10.484;2023-07-31T02:26:57;14.70;99.90
4187;DHT22;2107;52.306;10.484;2023-07-31T02:29:24;14.70;99.90
4187;DHT22;2107;52.306;10.484;2023-07-31T02:31:51;14.70;99.90
4187;DHT22;2107;52.306;10.484;2023-07-31T02:34:19;14.70;99.90
4187;DHT22;2107;52.306;10.484;2023-07-31T02:36:46;14.70;99.90
4187;DHT22;2107;52.306;10.484;2023-07-31T02:39:13;14.70;99.90
4187;DHT22;2107;52.306;10.484;2023-07-31T02:41:39;14.70;99.90
4187;DHT22;2107;52.306;10.484;2023-07-31T02:44:06;14.70;99.90
4187;DHT22;2107;52.306;10.484;2023-07-31T02:46:33;14.70;99.90
4187;DHT22;2107;52.306;10.484;2023-07-31T02:49:00;14.70;99.90
4187;DHT22;2107;52.306;10.484;2023-07-31T02:51:28;14.70;99.90
4187;DHT22;2107;52.306;10.484;2023-07-31T02:53:55;14.70;99.90
4187;DHT22;2107;52.306;10.484;2023-07-31T02:56:22;14.70;99.90
4187;DHT22;2107;52.306;10.484;2023-07-31T02:58:48;14.70;99.90
4187;DHT22;2107;52.306;10.484;2023-07-31T03:01:15;14.70;99.90
4187;DHT22;2107;52.306;10.484;2023-07-31T03:03:42;14.70;99.90
4187;DHT22;2107;52.306;10.484;2023-07-31T03:06:09;14.70;99.90
4187;DHT22;2107;52.306;10.484;2023-07-31T03:08:37;14.70;99.90
4187;DHT22;2107;52.306;10.484;2023-07-31T03:11:04;14.70;99.90
4187;DHT22;2107;52.306;10.484;2023-07-31T03:13:31;14.70;99.90
4187;DHT22;2107;52.306;10.484;2023-07-31T03:15:57;14.70;99.90
4187;DHT22;2107;52.306;10.484;2023-07-31T03:18:24;14.70;99.90
4187;DHT22;2107;52.306;10.484;2023-07-31T03:20:51;14.70;99.90
4187;DHT22;2107;52.306;10.484;2023-07-31T03:23:18;14.70;99.90
4187;DHT22;2107;52.306;10.484;2023-07-31T03:25:57;14.70;99.90
4187;DHT22;2107;52.306;10.484;2023-07-31T03:28:23;14.70;99.90
4187;DHT22;2107;52.306;10.484;2023-07-31T03:30:51;14.70;99.90
4187;DHT22;2107;52.306;10.484;2023-07-31T03:33:18;14.70;99.90
4187;DHT22;2107;52.306;10.484;2023-07-31T03:35:45;14.70;99.90
4187;DHT22;2107;52.306;10.484;2023-07-31T03:38:12;14.70;99.90
4187;DHT22;2107;52.306;10.484;2023-07-31T03:40:38;14.70;99.90
4187;DHT22;2107;52.306;10.484;2023-07-31T03:43:07;14.80;99.90
4187;DHT22;2107;52.306;10.484;2023-07-31T03:45:34;14.70;99.90
4187;DHT22;2107;52.306;10.484;2023-07-31T03:48:01;14.70;99.90
4187;DHT22;2107;52.306;10.484;2023-07-31T03:50:27;14.70;99.90
4187;DHT22;2107;52.306;10.484;2023-07-31T03:52:54;14.70;99.90
4187;DHT22;2107;52.306;10.484;2023-07-31T03:55:21;14.70;99.90
4187;DHT22;2107;52.306;10.484;2023-07-31T03:57:48;14.70;99.90
4187;DHT22;2107;52.306;10.484;2023-07-31T04:00:16;14.80;99.90
4187;DHT22;2107;52.306;10.484;2023-07-31T04:02:43;14.80;99.90
4187;DHT22;2107;52.306;10.484;2023-07-31T04:05:10;14.80;99.90
4187;DHT22;2107;52.306;10.484;2023-07-31T04:07:37;14.80;99.90
4187;DHT22;2107;52.306;10.484;2023-07-31T04:10:05;14.80;99.90
4187;DHT22;2107;52.306;10.484;2023-07-31T04:12:32;14.80;99.90
4187;DHT22;2107;52.306;10.484;2023-07-31T04:14:58;14.80;99.90
4187;DHT22;2107;52.306;10.484;2023-07-31T04:17:27;14.80;99.90
4187;DHT22;2107;52.306;10.484;2023-07-31T04:19:53;14.80;99.90
4187;DHT22;2107;52.306;10.484;2023-07-31T04:22:20;14.80;99.90
4187;DHT22;2107;52.306;10.484;2023-07-31T04:24:47;14.80;99.90
4187;DHT22;2107;52.306;10.484;2023-07-31T04:27:14;14.80;99.90
4187;DHT22;2107;52.306;10.484;2023-07-31T04:29:41;14.80;99.90
4187;DHT22;2107;52.306;10.484;2023-07-31T04:32:09;14.80;99.90
4187;DHT22;2107;52.306;10.484;2023-07-31T04:34:38;14.80;99.90
4187;DHT22;2107;52.306;10.484;2023-07-31T04:37:05;14.80;99.90
4187;DHT22;2107;52.306;10.484;2023-07-31T04:39:31;14.90;99.90
4187;DHT22;2107;52.306;10.484;2023-07-31T04:41:58;14.80;99.90
4187;DHT22;2107;52.306;10.484;2023-07-31T04:44:25;14.90;99.90
4187;DHT22;2107;52.306;10.484;2023-07-31T04:46:52;14.80;99.90
4187;DHT22;2107;52.306;10.484;2023-07-31T04:49:19;14.80;99.90
4187;DHT22;2107;52.306;10.484;2023-07-31T04:51:47;14.80;99.90
4187;DHT22;2107;52.306;10.484;2023-07-31T04:54:14;14.80;99.90
4187;DHT22;2107;52.306;10.484;2023-07-31T04:56:41;14.80;99.90
4187;DHT22;2107;52.306;10.484;2023-07-31T04:59:08;14.80;99.90
4187;DHT22;2107;52.306;10.484;2023-07-31T05:01:35;14.80;99.90
4187;DHT22;2107;52.306;10.484;2023-07-31T05:04:02;14.80;99.90
4187;DHT22;2107;52.306;10.484;2023-07-31T05:06:29;14.70;99.90
4187;DHT22;2107;52.306;10.484;2023-07-31T05:08:57;14.70;99.90
4187;DHT22;2107;52.306;10.484;2023-07-31T05:11:24;14.60;99.90
4187;DHT22;2107;52.306;10.484;2023-07-31T05:13:51;14.50;99.90
4187;DHT22;2107;52.306;10.484;2023-07-31T05:16:18;14.50;99.90
4187;DHT22;2107;52.306;10.484;2023-07-31T05:18:45;14.50;99.90
4187;DHT22;2107;52.306;10.484;2023-07-31T05:21:11;14.40;99.90
4187;DHT22;2107;52.306;10.484;2023-07-31T05:23:38;14.40;99.90
4187;DHT22;2107;52.306;10.484;2023-07-31T05:26:07;14.40;99.90
4187;DHT22;2107;52.306;10.484;2023-07-31T05:28:35;14.40;99.90
4187;DHT22;2107;52.306;10.484;2023-07-31T05:31:03;14.40;99.90
4187;DHT22;2107;52.306;10.484;2023-07-31T05:33:29;14.40;99.90
4187;DHT22;2107;52.306;10.484;2023-07-31T05:35:57;14.30;99.90
4187;DHT22;2107;52.306;10.484;2023-07-31T05:38:23;14.40;99.90
4187;DHT22;2107;52.306;10.484;2023-07-31T05:40:50;14.30;99.90
4187;DHT22;2107;52.306;10.484;2023-07-31T05:43:18;14.30;99.90
4187;DHT22;2107;52.306;10.484;2023-07-31T05:45:45;14.30;99.90
4187;DHT22;2107;52.306;10.484;2023-07-31T05:48:12;14.30;99.90
4187;DHT22;2107;52.306;10.484;2023-07-31T05:50:39;14.30;99.90
4187;DHT22;2107;52.306;10.484;2023-07-31T05:53:06;14.40;99.90
4187;DHT22;2107;52.306;10.484;2023-07-31T05:55:33;14.40;99.90
4187;DHT22;2107;52.306;10.484;2023-07-31T05:58:00;14.40;99.90
4187;DHT22;2107;52.306;10.484;2023-07-31T06:00:28;14.50;99.90
4187;DHT22;2107;52.306;10.484;2023-07-31T06:02:55;14.50;99.90
4187;DHT22;2107;52.306;10.484;2023-07-31T06:05:23;14.50;99.90
4187;DHT22;2107;52.306;10.484;2023-07-31T06:07:51;14.50;99.90
4187;DHT22;2107;52.306;10.484;2023-07-31T06:10:18;14.60;99.90
4187;DHT22;2107;52.306;10.484;2023-07-31T06:12:45;14.60;99.90
4187;DHT22;2107;52.306;10.484;2023-07-31T06:15:12;14.70;99.90
4187;DHT22;2107;52.306;10.484;2023-07-31T06:17:40;14.70;99.90
4187;DHT22;2107;52.306;10.484;2023-07-31T06:20:08;14.90;99.90
4187;DHT22;2107;52.306;10.484;2023-07-31T06:22:35;15.00;99.90
4187;DHT22;2107;52.306;10.484;2023-07-31T06:25:02;15.20;99.90
4187;DHT22;2107;52.306;10.484;2023-07-31T06:27:29;15.40;99.90
4187;DHT22;2107;52.306;10.484;2023-07-31T06:29:56;15.50;99.90
4187;DHT22;2107;52.306;10.484;2023-07-31T06:32:23;15.50;99.90
4187;DHT22;2107;52.306;10.484;2023-07-31T06:34:51;15.60;99.90
4187;DHT22;2107;52.306;10.484;2023-07-31T06:37:19;15.60;99.90
4187;DHT22;2107;52.306;10.484;2023-07-31T06:39:46;15.70;99.90
4187;DHT22;2107;52.306;10.484;2023-07-31T06:42:13;15.80;99.90
4187;DHT22;2107;52.306;10.484;2023-07-31T06:44:40;15.80;99.90
4187;DHT22;2107;52.306;10.484;2023-07-31T06:47:07;15.80;99.90
4187;DHT22;2107;52.306;10.484;2023-07-31T06:49:34;15.90;99.90
4187;DHT22;2107;52.306;10.484;2023-07-31T06:52:02;15.90;99.90
4187;DHT22;2107;52.306;10.484;2023-07-31T06:54:29;16.00;99.90
4187;DHT22;2107;52.306;10.484;2023-07-31T06:56:56;16.30;99.90
4187;DHT22;2107;52.306;10.484;2023-07-31T06:59:23;16.30;99.90
4187;DHT22;2107;52.306;10.484;2023-07-31T07:01:50;16.30;99.90
4187;DHT22;2107;52.306;10.484;2023-07-31T07:04:17;16.30;99.90
4187;DHT22;2107;52.306;10.484;2023-07-31T07:06:43;16.20;99.90
4187;DHT22;2107;52.306;10.484;2023-07-31T07:09:12;16.20;99.90
4187;DHT22;2107;52.306;10.484;2023-07-31T07:11:38;16.10;99.90
4187;DHT22;2107;52.306;10.484;2023-07-31T07:14:05;16.00;99.90
4187;DHT22;2107;52.306;10.484;2023-07-31T07:16:32;16.00;99.90
4187;DHT22;2107;52.306;10.484;2023-07-31T07:18:59;16.00;99.90
4187;DHT22;2107;52.306;10.484;2023-07-31T07:21:26;15.90;99.90
4187;DHT22;2107;52.306;10.484;2023-07-31T07:23:52;15.90;99.90
4187;DHT22;2107;52.306;10.484;2023-07-31T07:26:21;15.80;99.90
4187;DHT22;2107;52.306;10.484;2023-07-31T07:28:48;15.90;99.90
4187;DHT22;2107;52.306;10.484;2023-07-31T07:31:14;15.80;99.90
4187;DHT22;2107;52.306;10.484;2023-07-31T07:33:41;15.80;99.90
4187;DHT22;2107;52.306;10.484;2023-07-31T07:36:08;15.80;99.90
4187;DHT22;2107;52.306;10.484;2023-07-31T07:38:35;15.80;99.90
4187;DHT22;2107;52.306;10.484;2023-07-31T07:41:04;15.80;99.90
4187;DHT22;2107;52.306;10.484;2023-07-31T07:43:32;15.80;99.90
4187;DHT22;2107;52.306;10.484;2023-07-31T07:45:59;15.80;99.90
4187;DHT22;2107;52.306;10.484;2023-07-31T07:48:26;15.80;99.90
4187;DHT22;2107;52.306;10.484;2023-07-31T07:50:52;15.80;99.90
4187;DHT22;2107;52.306;10.484;2023-07-31T07:53:19;15.80;99.90
4187;DHT22;2107;52.306;10.484;2023-07-31T07:55:46;15.80;99.90
4187;DHT22;2107;52.306;10.484;2023-07-31T07:58:13;15.80;99.90
4187;DHT22;2107;52.306;10.484;2023-07-31T08:00:41;15.80;99.90
4187;DHT22;2107;52.306;10.484;2023-07-31T08:03:08;15.90;99.90
4187;DHT22;2107;52.306;10.484;2023-07-31T08:05:35;15.90;99.90
4187;DHT22;2107;52.306;10.484;2023-07-31T08:08:02;16.10;99.90
4187;DHT22;2107;52.306;10.484;2023-07-31T08:10:29;16.10;99.90
4187;DHT22;2107;52.306;10.484;2023-07-31T08:12:55;16.10;99.90
4187;DHT22;2107;52.306;10.484;2023-07-31T08:15:22;16.50;99.90
4187;DHT22;2107;52.306;10.484;2023-07-31T08:17:50;17.00;99.90
4187;DHT22;2107;52.306;10.484;2023-07-31T08:20:18;17.20;99.90
4187;DHT22;2107;52.306;10.484;2023-07-31T08:22:45;17.30;99.90
4187;DHT22;2107;52.306;10.484;2023-07-31T08:25:12;17.20;99.90
4187;DHT22;2107;52.306;10.484;2023-07-31T08:27:46;17.20;99.90
4187;DHT22;2107;52.306;10.484;2023-07-31T08:30:13;17.30;99.90
4187;DHT22;2107;52.306;10.484;2023-07-31T08:32:40;17.40;99.90
4187;DHT22;2107;52.306;10.484;2023-07-31T08:35:08;17.80;99.90
4187;DHT22;2107;52.306;10.484;2023-07-31T08:37:35;18.10;99.90
4187;DHT22;2107;52.306;10.484;2023-07-31T08:40:03;18.10;99.90
4187;DHT22;2107;52.306;10.484;2023-07-31T08:42:30;18.00;99.90
4187;DHT22;2107;52.306;10.484;2023-07-31T08:44:57;17.70;99.90
4187;DHT22;2107;52.306;10.484;2023-07-31T08:47:26;17.60;99.90
4187;DHT22;2107;52.306;10.484;2023-07-31T08:49:55;17.50;99.90
4187;DHT22;2107;52.306;10.484;2023-07-31T08:52:23;17.30;99.90
4187;DHT22;2107;52.306;10.484;2023-07-31T08:54:50;17.50;99.90
4187;DHT22;2107;52.306;10.484;2023-07-31T08:57:17;17.60;99.90
4187;DHT22;2107;52.306;10.484;2023-07-31T08:59:45;17.40;99.90
4187;DHT22;2107;52.306;10.484;2023-07-31T09:02:13;17.40;99.90
4187;DHT22;2107;52.306;10.484;2023-07-31T09:04:41;17.30;99.90
4187;DHT22;2107;52.306;10.484;2023-07-31T09:07:08;17.40;99.90
4187;DHT22;2107;52.306;10.484;2023-07-31T09:09:40;17.50;99.90
4187;DHT22;2107;52.306;10.484;2023-07-31T09:12:10;17.50;99.90
4187;DHT22;2107;52.306;10.484;2023-07-31T09:14:37;17.30;99.90
4187;DHT22;2107;52.306;10.484;2023-07-31T09:17:05;17.10;99.90
4187;DHT22;2107;52.306;10.484;2023-07-31T09:19:34;17.00;99.90
4187;DHT22;2107;52.306;10.484;2023-07-31T09:22:05;17.00;99.90
4187;DHT22;2107;52.306;10.484;2023-07-31T09:24:34;17.00;99.90
4187;DHT22;2107;52.306;10.484;2023-07-31T09:27:02;17.00;99.90
4187;DHT22;2107;52.306;10.484;2023-07-31T09:29:29;17.10;99.90
4187;DHT22;2107;52.306;10.484;2023-07-31T09:31:56;17.20;99.90
4187;DHT22;2107;52.306;10.484;2023-07-31T09:34:29;17.30;99.90
4187;DHT22;2107;52.306;10.484;2023-07-31T09:37:00;17.30;99.90
4187;DHT22;2107;52.306;10.484;2023-07-31T09:39:27;17.40;99.90
4187;DHT22;2107;52.306;10.484;2023-07-31T09:41:56;17.30;99.90
4187;DHT22;2107;52.306;10.484;2023-07-31T09:44:37;17.50;99.90
4187;DHT22;2107;52.306;10.484;2023-07-31T09:47:05;17.70;99.90
4187;DHT22;2107;52.306;10.484;2023-07-31T09:49:32;17.50;99.90
4187;DHT22;2107;52.306;10.484;2023-07-31T09:51:59;17.50;99.90
4187;DHT22;2107;52.306;10.484;2023-07-31T09:54:26;17.20;99.90
4187;DHT22;2107;52.306;10.484;2023-07-31T09:56:54;17.30;99.90
4187;DHT22;2107;52.306;10.484;2023-07-31T09:59:22;17.30;99.90
4187;DHT22;2107;52.306;10.484;2023-07-31T10:01:52;17.20;99.90
4187;DHT22;2107;52.306;10.484;2023-07-31T10:04:25;17.20;99.90
4187;DHT22;2107;52.306;10.484;2023-07-31T10:06:53;17.30;99.90
4187;DHT22;2107;52.306;10.484;2023-07-31T10:09:21;17.30;99.90
4187;DHT22;2107;52.306;10.484;2023-07-31T10:11:55;17.10;99.90
4187;DHT22;2107;52.306;10.484;2023-07-31T10:14:24;16.90;99.90
4187;DHT22;2107;52.306;10.484;2023-07-31T10:16:53;17.00;99.90
4187;DHT22;2107;52.306;10.484;2023-07-31T10:19:21;16.90;99.90
4187;DHT22;2107;52.306;10.484;2023-07-31T10:21:49;16.80;99.90
4187;DHT22;2107;52.306;10.484;2023-07-31T10:24:16;16.90;99.90
4187;DHT22;2107;52.306;10.484;2023-07-31T10:26:45;17.00;99.90
4187;DHT22;2107;52.306;10.484;2023-07-31T10:29:14;17.10;99.90
4187;DHT22;2107;52.306;10.484;2023-07-31T10:31:43;17.20;99.90
4187;DHT22;2107;52.306;10.484;2023-07-31T10:34:13;17.40;99.90
4187;DHT22;2107;52.306;10.484;2023-07-31T10:36:40;17.90;99.90
4187;DHT22;2107;52.306;10.484;2023-07-31T10:39:36;18.10;99.90
4187;DHT22;2107;52.306;10.484;2023-07-31T10:42:12;18.30;99.90
4187;DHT22;2107;52.306;10.484;2023-07-31T10:44:43;18.60;99.90
4187;DHT22;2107;52.306;10.484;2023-07-31T10:47:14;18.80;99.90
4187;DHT22;2107;52.306;10.484;2023-07-31T10:49:45;18.70;99.90
4187;DHT22;2107;52.306;10.484;2023-07-31T10:52:13;18.80;99.90
4187;DHT22;2107;52.306;10.484;2023-07-31T10:54:41;18.80;99.90
4187;DHT22;2107;52.306;10.484;2023-07-31T10:57:19;18.90;99.90
4187;DHT22;2107;52.306;10.484;2023-07-31T10:59:47;19.10;99.90
4187;DHT22;2107;52.306;10.484;2023-07-31T11:02:24;19.30;99.90
4187;DHT22;2107;52.306;10.484;2023-07-31T11:05:06;19.50;99.90
4187;DHT22;2107;52.306;10.484;2023-07-31T11:07:49;19.30;99.90
4187;DHT22;2107;52.306;10.484;2023-07-31T11:10:18;19.20;99.90
4187;DHT22;2107;52.306;10.484;2023-07-31T11:12:46;19.50;99.90
4187;DHT22;2107;52.306;10.484;2023-07-31T11:15:13;19.40;99.90
4187;DHT22;2107;52.306;10.484;2023-07-31T11:17:40;19.30;99.90
4187;DHT22;2107;52.306;10.484;2023-07-31T11:20:07;19.70;99.90
4187;DHT22;2107;52.306;10.484;2023-07-31T11:22:35;20.00;99.90
4187;DHT22;2107;52.306;10.484;2023-07-31T11:25:03;20.20;99.90
4187;DHT22;2107;52.306;10.484;2023-07-31T11:27:38;20.50;99.90
4187;DHT22;2107;52.306;10.484;2023-07-31T11:30:06;20.30;99.90
4187;DHT22;2107;52.306;10.484;2023-07-31T11:32:33;20.20;99.90
4187;DHT22;2107;52.306;10.484;2023-07-31T11:35:00;20.20;99.90
4187;DHT22;2107;52.306;10.484;2023-07-31T11:37:39;20.40;99.90
4187;DHT22;2107;52.306;10.484;2023-07-31T11:40:07;20.80;99.90
4187;DHT22;2107;52.306;10.484;2023-07-31T11:42:36;20.90;99.90
4187;DHT22;2107;52.306;10.484;2023-07-31T11:45:03;20.80;99.90
4187;DHT22;2107;52.306;10.484;2023-07-31T11:47:32;21.20;99.90
4187;DHT22;2107;52.306;10.484;2023-07-31T11:50:00;20.90;99.90
4187;DHT22;2107;52.306;10.484;2023-07-31T11:52:28;20.90;99.90
4187;DHT22;2107;52.306;10.484;2023-07-31T11:54:56;21.10;99.90
4187;DHT22;2107;52.306;10.484;2023-07-31T11:57:23;20.40;99.90
4187;DHT22;2107;52.306;10.484;2023-07-31T11:59:52;20.40;99.90
4187;DHT22;2107;52.306;10.484;2023-07-31T12:02:19;20.30;99.90
4187;DHT22;2107;52.306;10.484;2023-07-31T12:04:47;20.00;99.90
4187;DHT22;2107;52.306;10.484;2023-07-31T12:07:14;20.10;99.90
4187;DHT22;2107;52.306;10.484;2023-07-31T12:09:51;20.20;99.90
4187;DHT22;2107;52.306;10.484;2023-07-31T12:12:20;20.20;99.90
4187;DHT22;2107;52.306;10.484;2023-07-31T12:14:47;19.90;99.90
4187;DHT22;2107;52.306;10.484;2023-07-31T12:17:18;19.80;99.90
4187;DHT22;2107;52.306;10.484;2023-07-31T12:19:46;19.40;99.90
4187;DHT22;2107;52.306;10.484;2023-07-31T12:22:15;19.30;99.90
4187;DHT22;2107;52.306;10.484;2023-07-31T12:24:44;19.30;99.90
4187;DHT22;2107;52.306;10.484;2023-07-31T12:27:11;19.30;99.90
4187;DHT22;2107;52.306;10.484;2023-07-31T12:29:38;19.80;99.90
4187;DHT22;2107;52.306;10.484;2023-07-31T12:32:20;20.20;99.90
4187;DHT22;2107;52.306;10.484;2023-07-31T12:34:47;20.30;99.90
4187;DHT22;2107;52.306;10.484;2023-07-31T12:37:14;20.40;99.90
4187;DHT22;2107;52.306;10.484;2023-07-31T12:39:41;20.30;99.90
4187;DHT22;2107;52.306;10.484;2023-07-31T12:42:08;20.20;99.90
4187;DHT22;2107;52.306;10.484;2023-07-31T12:44:34;20.00;99.90
4187;DHT22;2107;52.306;10.484;2023-07-31T12:47:01;19.90;99.90
4187;DHT22;2107;52.306;10.484;2023-07-31T12:49:30;19.70;99.90
4187;DHT22;2107;52.306;10.484;2023-07-31T12:51:57;19.70;99.90
4187;DHT22;2107;52.306;10.484;2023-07-31T12:54:24;19.90;99.90
4187;DHT22;2107;52.306;10.484;2023-07-31T12:56:51;20.10;99.90
4187;DHT22;2107;52.306;10.484;2023-07-31T12:59:18;20.20;99.90
4187;DHT22;2107;52.306;10.484;2023-07-31T13:01:45;20.10;99.90
4187;DHT22;2107;52.306;10.484;2023-07-31T13:04:12;20.10;99.90
4187;DHT22;2107;52.306;10.484;2023-07-31T13:06:40;20.00;99.90
4187;DHT22;2107;52.306;10.484;2023-07-31T13:09:07;19.80;99.90
4187;DHT22;2107;52.306;10.484;2023-07-31T13:11:34;19.70;99.90
4187;DHT22;2107;52.306;10.484;2023-07-31T13:14:01;19.90;99.90
4187;DHT22;2107;52.306;10.484;2023-07-31T13:16:28;19.90;99.90
4187;DHT22;2107;52.306;10.484;2023-07-31T13:18:55;20.10;99.90
4187;DHT22;2107;52.306;10.484;2023-07-31T13:21:22;20.40;99.90
4187;DHT22;2107;52.306;10.484;2023-07-31T13:23:50;20.40;99.90
4187;DHT22;2107;52.306;10.484;2023-07-31T13:26:17;20.10;99.90
4187;DHT22;2107;52.306;10.484;2023-07-31T13:28:43;19.60;99.90
4187;DHT22;2107;52.306;10.484;2023-07-31T13:31:10;19.40;99.90
4187;DHT22;2107;52.306;10.484;2023-07-31T13:33:37;19.40;99.90
4187;DHT22;2107;52.306;10.484;2023-07-31T13:36:04;19.90;99.90
4187;DHT22;2107;52.306;10.484;2023-07-31T13:38:31;20.50;99.90
4187;DHT22;2107;52.306;10.484;2023-07-31T13:40:59;20.80;99.90
4187;DHT22;2107;52.306;10.484;2023-07-31T13:43:26;20.80;99.90
4187;DHT22;2107;52.306;10.484;2023-07-31T13:45:53;20.70;99.90
4187;DHT22;2107;52.306;10.484;2023-07-31T13:48:20;20.10;99.90
4187;DHT22;2107;52.306;10.484;2023-07-31T13:50:47;19.90;99.90
4187;DHT22;2107;52.306;10.484;2023-07-31T13:53:13;19.90;99.90
4187;DHT22;2107;52.306;10.484;2023-07-31T13:55:40;20.00;99.90
4187;DHT22;2107;52.306;10.484;2023-07-31T13:58:12;20.00;99.90
4187;DHT22;2107;52.306;10.484;2023-07-31T14:00:39;19.90;99.90
4187;DHT22;2107;52.306;10.484;2023-07-31T14:03:05;19.70;99.90
4187;DHT22;2107;52.306;10.484;2023-07-31T14:05:32;19.70;99.90
4187;DHT22;2107;52.306;10.484;2023-07-31T14:07:59;19.90;99.90
4187;DHT22;2107;52.306;10.484;2023-07-31T14:10:26;20.30;99.90
4187;DHT22;2107;52.306;10.484;2023-07-31T14:12:53;20.50;99.90
4187;DHT22;2107;52.306;10.484;2023-07-31T14:15:21;20.50;99.90
4187;DHT22;2107;52.306;10.484;2023-07-31T14:17:48;20.70;99.90
4187;DHT22;2107;52.306;10.484;2023-07-31T14:20:15;20.60;99.90
4187;DHT22;2107;52.306;10.484;2023-07-31T14:22:42;20.80;99.90
4187;DHT22;2107;52.306;10.484;2023-07-31T14:25:09;20.60;99.90
4187;DHT22;2107;52.306;10.484;2023-07-31T14:27:36;20.40;99.90
4187;DHT22;2107;52.306;10.484;2023-07-31T14:30:03;20.00;99.90
4187;DHT22;2107;52.306;10.484;2023-07-31T14:32:33;19.90;99.90
4187;DHT22;2107;52.306;10.484;2023-07-31T14:35:00;19.90;99.90
4187;DHT22;2107;52.306;10.484;2023-07-31T14:37:26;19.80;99.90
4187;DHT22;2107;52.306;10.484;2023-07-31T14:40:03;19.70;99.90
4187;DHT22;2107;52.306;10.484;2023-07-31T14:42:30;19.60;99.90
4187;DHT22;2107;52.306;10.484;2023-07-31T14:44:57;19.80;99.90
4187;DHT22;2107;52.306;10.484;2023-07-31T14:47:24;19.80;99.90
4187;DHT22;2107;52.306;10.484;2023-07-31T14:49:52;20.30;99.90
4187;DHT22;2107;52.306;10.484;2023-07-31T14:52:19;20.20;99.90
4187;DHT22;2107;52.306;10.484;2023-07-31T14:54:46;20.50;99.90
4187;DHT22;2107;52.306;10.484;2023-07-31T14:57:12;20.40;99.90
4187;DHT22;2107;52.306;10.484;2023-07-31T14:59:39;20.20;99.90
4187;DHT22;2107;52.306;10.484;2023-07-31T15:02:06;20.10;99.90
4187;DHT22;2107;52.306;10.484;2023-07-31T15:04:35;20.20;99.90
4187;DHT22;2107;52.306;10.484;2023-07-31T15:07:04;20.20;99.90
4187;DHT22;2107;52.306;10.484;2023-07-31T15:09:31;20.30;99.90
4187;DHT22;2107;52.306;10.484;2023-07-31T15:11:58;20.60;99.90
4187;DHT22;2107;52.306;10.484;2023-07-31T15:14:25;20.60;99.90
4187;DHT22;2107;52.306;10.484;2023-07-31T15:16:53;20.50;99.90
4187;DHT22;2107;52.306;10.484;2023-07-31T15:19:19;20.50;99.90
4187;DHT22;2107;52.306;10.484;2023-07-31T15:21:48;20.20;99.90
4187;DHT22;2107;52.306;10.484;2023-07-31T15:24:16;20.20;99.90
4187;DHT22;2107;52.306;10.484;2023-07-31T15:26:43;20.00;99.90
4187;DHT22;2107;52.306;10.484;2023-07-31T15:29:10;20.10;99.90
4187;DHT22;2107;52.306;10.484;2023-07-31T15:31:41;19.90;99.90
4187;DHT22;2107;52.306;10.484;2023-07-31T15:34:08;20.00;99.90
4187;DHT22;2107;52.306;10.484;2023-07-31T15:36:35;20.10;99.90
4187;DHT22;2107;52.306;10.484;2023-07-31T15:39:02;20.20;99.90
4187;DHT22;2107;52.306;10.484;2023-07-31T15:41:30;20.30;99.90
4187;DHT22;2107;52.306;10.484;2023-07-31T15:43:57;20.10;99.90
4187;DHT22;2107;52.306;10.484;2023-07-31T15:46:24;20.20;99.90
4187;DHT22;2107;52.306;10.484;2023-07-31T15:48:51;20.20;99.90